Time;durP1;ratioP1;P1;durP2;ratioP2;P2;SDS_P1;SDS_P2;PMS_P1;PMS_P2;Temp;Humidity;BMP_temperature;BMP_pressure;BME280_temperature;BME280_humidity;BME280_pressure;Samples;Min_cycle;Max_cycle;Signal;HPM_P1;HPM_P2
2020/12/24 00:00:39;;;;;;;40.03;23.67;;;;;;;5.81;72.33;95530.94;5048765;28;20199;-64
2020/12/24 00:03:05;;;;;;;44.13;24.77;;;;;;;5.37;73.49;95538.78;5048937;28;20602;-63
2020/12/24 00:05:33;;;;;;;50.58;25.67;;;;;;;5.31;73.51;95544.81;5048469;28;20196;-64
2020/12/24 00:07:59;;;;;;;48.78;27.70;;;;;;;5.33;73.02;95535.81;5049059;28;20203;-64
2020/12/24 00:10:26;;;;;;;50.55;28.70;;;;;;;5.46;71.98;95543.53;5055824;28;20235;-64
2020/12/24 00:12:52;;;;;;;51.10;28.80;;;;;;;5.72;71.52;95543.41;5048518;28;20315;-66
2020/12/24 00:15:19;;;;;;;50.65;27.98;;;;;;;5.86;72.10;95536.34;5048783;28;20238;-63
2020/12/24 00:17:45;;;;;;;49.05;27.63;;;;;;;5.98;72.09;95537.28;5048793;28;20315;-63
2020/12/24 00:20:14;;;;;;;47.22;27.80;;;;;;;5.87;72.01;95514.53;5048095;28;20222;-64
2020/12/24 00:22:40;;;;;;;49.83;27.75;;;;;;;6.06;71.35;95530.00;5048556;28;20610;-65
2020/12/24 00:25:07;;;;;;;48.65;26.02;;;;;;;5.94;71.92;95530.88;5047072;28;20565;-65
2020/12/24 00:27:34;;;;;;;52.20;25.95;;;;;;;5.95;70.94;95532.47;5045170;28;20283;-65
2020/12/24 00:30:00;;;;;;;54.85;28.65;;;;;;;5.41;72.20;95532.16;5048147;28;20583;-64
2020/12/24 00:32:27;;;;;;;58.95;29.13;;;;;;;5.35;71.68;95536.41;5048655;28;20221;-64
2020/12/24 00:34:54;;;;;;;51.63;28.60;;;;;;;4.68;74.05;95539.44;5044928;28;20228;-63
2020/12/24 00:37:20;;;;;;;54.50;30.23;;;;;;;4.45;75.04;95539.09;5048469;28;20184;-64
2020/12/24 00:39:47;;;;;;;54.05;29.35;;;;;;;4.36;75.22;95540.25;5048209;28;20722;-63
2020/12/24 00:42:13;;;;;;;55.85;29.65;;;;;;;4.49;74.50;95535.06;5048373;28;20192;-63
2020/12/24 00:44:40;;;;;;;54.33;29.80;;;;;;;4.73;74.44;95531.84;5046449;28;20246;-64
2020/12/24 00:47:06;;;;;;;51.65;28.30;;;;;;;4.98;73.47;95529.38;5048250;28;20262;-63
2020/12/24 00:49:33;;;;;;;53.17;29.05;;;;;;;5.04;73.64;95533.72;5047938;28;20557;-64
2020/12/24 00:52:00;;;;;;;53.63;29.70;;;;;;;4.92;72.50;95536.19;5047861;28;20200;-64
2020/12/24 00:54:26;;;;;;;56.03;27.55;;;;;;;4.98;72.95;95524.97;5047495;28;20670;-64
2020/12/24 00:56:53;;;;;;;56.13;29.65;;;;;;;5.25;72.16;95538.66;5063428;28;20306;-65
2020/12/24 00:59:23;;;;;;;57.42;30.83;;;;;;;5.17;72.22;95541.47;5046335;28;20202;-65
2020/12/24 01:01:49;;;;;;;54.75;27.55;;;;;;;5.23;72.84;95537.25;5048160;28;20197;-64
2020/12/24 01:04:16;;;;;;;52.95;28.40;;;;;;;5.16;73.35;95532.09;5044738;28;20192;-65
2020/12/24 01:06:42;;;;;;;53.92;28.30;;;;;;;5.13;73.40;95528.09;5047726;28;20300;-65
2020/12/24 01:09:08;;;;;;;57.92;28.60;;;;;;;5.30;72.75;95532.81;5047425;28;20219;-65
2020/12/24 01:11:35;;;;;;;53.05;27.85;;;;;;;5.42;72.06;95531.19;5045293;28;20682;-64
2020/12/24 01:14:02;;;;;;;52.55;27.50;;;;;;;5.35;72.03;95530.41;5047158;28;20221;-65
2020/12/24 01:16:28;;;;;;;50.47;27.52;;;;;;;5.22;71.26;95517.50;5048171;28;20364;-63
2020/12/24 01:18:58;;;;;;;52.92;29.42;;;;;;;5.28;71.08;95524.44;5045073;28;20281;-64
2020/12/24 01:21:25;;;;;;;52.67;28.13;;;;;;;5.33;71.51;95532.44;5047670;28;20196;-64
2020/12/24 01:23:51;;;;;;;51.45;27.55;;;;;;;5.29;71.12;95520.84;5047434;28;20204;-65
2020/12/24 01:26:17;;;;;;;50.50;28.85;;;;;;;5.38;71.01;95524.81;5048139;28;20199;-63
2020/12/24 01:28:44;;;;;;;53.08;28.75;;;;;;;5.44;70.74;95529.97;5047685;28;20232;-62
2020/12/24 01:31:11;;;;;;;51.40;27.60;;;;;;;5.29;70.49;95511.25;5047864;28;20260;-64
2020/12/24 01:33:37;;;;;;;52.00;29.30;;;;;;;5.38;70.26;95519.59;5043846;28;20224;-63
2020/12/24 01:36:05;;;;;;;52.95;28.13;;;;;;;5.32;69.95;95515.22;5047570;28;20196;-63
2020/12/24 01:38:32;;;;;;;50.63;27.50;;;;;;;5.08;70.31;95509.75;5047426;28;20200;-63
2020/12/24 01:41:00;;;;;;;54.75;29.50;;;;;;;4.71;71.86;95507.06;5048203;28;20596;-64
2020/12/24 01:43:26;;;;;;;52.70;28.60;;;;;;;4.51;73.17;95501.13;5051117;28;20201;-63
2020/12/24 01:45:58;;;;;;;53.40;28.45;;;;;;;4.70;71.70;95490.72;5047304;28;21034;-63
2020/12/24 01:48:25;;;;;;;57.58;29.08;;;;;;;4.75;70.80;95506.47;5047612;28;20270;-64
2020/12/24 01:50:52;;;;;;;54.50;27.92;;;;;;;4.88;70.75;95498.63;5046768;28;20194;-64
2020/12/24 01:53:21;;;;;;;51.97;27.20;;;;;;;4.96;70.42;95495.03;5044647;28;20219;-63
2020/12/24 01:55:50;;;;;;;47.15;27.27;;;;;;;4.88;70.64;95493.44;5047623;28;20181;-64
2020/12/24 01:58:17;;;;;;;52.70;27.50;;;;;;;4.75;70.80;95498.69;5051161;28;20276;-64
2020/12/24 02:00:47;;;;;;;51.90;26.83;;;;;;;4.82;70.36;95494.25;5050745;28;20579;-62
2020/12/24 02:03:17;;;;;;;53.97;26.73;;;;;;;4.81;70.16;95490.09;5050963;28;20189;-64
2020/12/24 02:05:44;;;;;;;45.15;26.70;;;;;;;4.95;70.41;95493.41;5050891;28;20677;-63
2020/12/24 02:08:11;;;;;;;47.17;27.75;;;;;;;4.94;70.26;95492.63;5051326;28;20189;-63
2020/12/24 02:10:38;;;;;;;51.95;27.63;;;;;;;4.95;70.07;95485.63;5050810;28;20169;-65
2020/12/24 02:13:05;;;;;;;49.90;26.30;;;;;;;4.86;70.25;95490.25;5051173;28;20226;-64
2020/12/24 02:15:31;;;;;;;46.95;26.05;;;;;;;4.83;70.28;95480.28;5050842;28;20185;-63
2020/12/24 02:17:58;;;;;;;48.40;26.55;;;;;;;4.88;69.81;95477.88;5050746;28;20250;-63
2020/12/24 02:20:24;;;;;;;50.17;27.60;;;;;;;4.80;69.74;95485.88;5050873;28;20205;-65
2020/12/24 02:22:51;;;;;;;47.05;26.10;;;;;;;4.74;70.33;95488.50;5050891;28;20189;-64
2020/12/24 02:25:17;;;;;;;45.55;26.30;;;;;;;4.70;69.78;95489.91;5050453;28;20551;-64
2020/12/24 02:27:44;;;;;;;47.13;25.95;;;;;;;4.68;69.14;95487.53;5050913;28;20672;-64
2020/12/24 02:30:10;;;;;;;44.10;24.95;;;;;;;4.54;69.25;95496.34;5050487;28;20195;-67
2020/12/24 02:32:36;;;;;;;49.78;25.63;;;;;;;4.48;69.31;95496.34;5050929;28;20220;-64
2020/12/24 02:35:04;;;;;;;46.05;26.02;;;;;;;4.52;69.83;95493.16;5050041;28;20319;-64
2020/12/24 02:37:31;;;;;;;50.03;25.52;;;;;;;4.52;69.23;95485.38;5050267;28;20196;-66
2020/12/24 02:39:58;;;;;;;44.38;25.27;;;;;;;4.47;69.34;95495.53;5050173;28;20224;-66
2020/12/24 02:42:24;;;;;;;48.25;25.67;;;;;;;4.50;69.47;95484.78;5050486;28;20945;-63
2020/12/24 02:44:55;;;;;;;48.03;25.48;;;;;;;4.62;69.14;95482.34;5049923;28;20904;-64
2020/12/24 02:47:21;;;;;;;47.40;23.95;;;;;;;4.63;69.29;95478.75;5050610;28;20192;-64
2020/12/24 02:49:58;;;;;;;51.25;25.42;;;;;;;4.58;69.29;95470.78;5047712;28;20215;-63
2020/12/24 02:52:25;;;;;;;46.53;26.17;;;;;;;4.09;70.53;95476.44;5050142;28;20743;-65
2020/12/24 02:54:52;;;;;;;47.10;25.17;;;;;;;4.25;70.68;95481.25;5050163;28;20193;-64
2020/12/24 02:57:19;;;;;;;47.47;24.35;;;;;;;4.26;70.60;95477.63;5050133;28;20302;-65
2020/12/24 03:00:07;;;;;;;48.35;25.88;;;;;;;3.90;71.92;95462.53;5048089;28;20237;-64
2020/12/24 03:02:34;;;;;;;48.40;26.15;;;;;;;3.46;74.12;95480.44;5050831;28;20192;-64
2020/12/24 03:05:01;;;;;;;47.58;25.50;;;;;;;3.66;72.64;95462.31;5050094;28;20188;-64
2020/12/24 03:07:27;;;;;;;43.65;24.88;;;;;;;3.38;73.52;95466.84;5049963;28;20326;-64
2020/12/24 03:09:54;;;;;;;48.22;23.88;;;;;;;3.44;74.03;95460.88;5049615;28;20673;-64
2020/12/24 03:12:24;;;;;;;50.08;25.63;;;;;;;3.36;74.33;95458.50;5050587;28;20583;-63
2020/12/24 03:14:51;;;;;;;48.28;24.73;;;;;;;3.57;74.53;95468.69;5049283;28;20737;-64
2020/12/24 03:17:19;;;;;;;46.63;26.02;;;;;;;3.43;74.73;95464.50;5058678;28;20196;-65
2020/12/24 03:19:46;;;;;;;44.67;24.33;;;;;;;3.87;73.30;95462.09;5049802;28;20273;-65
2020/12/24 03:22:13;;;;;;;44.72;24.30;;;;;;;3.99;72.18;95455.31;5050080;28;20258;-63
2020/12/24 03:24:39;;;;;;;40.67;22.73;;;;;;;4.05;72.22;95459.72;5049528;28;20642;-64
2020/12/24 03:27:06;;;;;;;46.38;23.73;;;;;;;3.92;72.75;95464.91;5049766;28;20204;-64
2020/12/24 03:29:33;;;;;;;44.10;24.52;;;;;;;3.99;72.53;95460.50;5049344;28;20195;-66
2020/12/24 03:31:59;;;;;;;41.42;23.00;;;;;;;4.11;71.99;95466.66;5049557;28;20699;-63
2020/12/24 03:34:26;;;;;;;43.33;24.27;;;;;;;3.92;72.61;95470.09;5049152;28;20340;-64
2020/12/24 03:36:52;;;;;;;41.35;22.05;;;;;;;3.71;73.15;95463.31;5049755;28;20611;-64
2020/12/24 03:39:18;;;;;;;45.42;21.75;;;;;;;3.57;74.48;95466.09;5049420;28;20193;-64
2020/12/24 03:41:46;;;;;;;37.90;20.60;;;;;;;3.91;72.90;95463.28;5049777;28;20196;-63
2020/12/24 03:44:12;;;;;;;40.88;21.92;;;;;;;3.97;72.38;95472.88;5049154;28;20607;-65
2020/12/24 03:46:39;;;;;;;42.10;22.60;;;;;;;3.92;71.77;95459.72;5049971;28;20208;-63
2020/12/24 03:49:06;;;;;;;37.58;20.83;;;;;;;3.92;72.20;95470.09;5049055;28;20235;-65
2020/12/24 03:51:33;;;;;;;38.40;21.77;;;;;;;4.09;71.17;95461.69;5049435;28;20196;-63
2020/12/24 03:53:59;;;;;;;40.22;22.13;;;;;;;4.11;71.25;95464.06;5049173;28;20215;-65
2020/12/24 03:56:25;;;;;;;43.20;23.25;;;;;;;3.88;72.46;95471.47;5049716;28;20192;-64
2020/12/24 03:58:52;;;;;;;35.63;21.50;;;;;;;3.90;72.20;95461.72;5048564;28;20223;-65
2020/12/24 04:01:18;;;;;;;43.92;24.20;;;;;;;3.41;74.38;95466.47;5049394;28;20204;-65
2020/12/24 04:03:45;;;;;;;38.47;22.42;;;;;;;3.68;73.71;95460.31;5048706;28;20197;-64
2020/12/24 04:06:11;;;;;;;39.40;23.13;;;;;;;3.88;73.02;95479.25;5049395;28;20203;-65
2020/12/24 04:08:38;;;;;;;45.83;26.95;;;;;;;3.95;72.48;95472.28;5045790;28;20192;-64
2020/12/24 04:11:05;;;;;;;43.03;24.80;;;;;;;3.78;73.05;95474.47;5049418;28;20192;-65
2020/12/24 04:13:32;;;;;;;43.03;24.20;;;;;;;3.86;72.34;95468.28;5048356;28;20299;-64
2020/12/24 04:15:59;;;;;;;41.83;24.50;;;;;;;3.83;72.25;95448.75;5046479;28;20279;-66
2020/12/24 04:18:27;;;;;;;43.92;24.95;;;;;;;3.96;71.83;95471.25;5048929;28;20201;-65
2020/12/24 04:20:57;;;;;;;39.97;23.17;;;;;;;4.09;71.21;95476.44;5048574;28;21022;-63
2020/12/24 04:23:24;;;;;;;46.03;24.23;;;;;;;4.10;71.06;95478.06;5049202;28;20650;-63
2020/12/24 04:25:50;;;;;;;39.47;22.55;;;;;;;4.15;70.83;95475.66;5049329;28;20267;-63
2020/12/24 04:28:16;;;;;;;42.88;22.90;;;;;;;4.22;70.50;95468.66;5049012;28;20188;-64
2020/12/24 04:30:43;;;;;;;44.90;23.80;;;;;;;3.57;73.03;95466.09;5048822;28;20242;-65
2020/12/24 04:33:10;;;;;;;42.25;22.50;;;;;;;3.60;72.66;95470.88;5048802;28;20236;-63
2020/12/24 04:35:37;;;;;;;39.58;22.05;;;;;;;3.57;72.22;95466.09;5048717;28;20236;-63
2020/12/24 04:38:04;;;;;;;43.17;22.85;;;;;;;3.64;72.38;95477.25;5048878;28;20196;-64
2020/12/24 04:40:33;;;;;;;40.42;22.30;;;;;;;3.76;71.61;95465.31;5047821;28;20224;-65
2020/12/24 04:43:01;;;;;;;41.22;22.33;;;;;;;3.85;71.35;95471.91;5046371;28;20185;-65
2020/12/24 04:45:29;;;;;;;40.63;22.75;;;;;;;3.72;72.22;95470.06;5047950;28;20180;-64
2020/12/24 04:47:57;;;;;;;41.55;23.33;;;;;;;3.61;73.48;95473.25;5048818;28;20612;-65
2020/12/24 04:50:29;;;;;;;41.28;21.65;;;;;;;3.56;72.94;95464.50;5053601;28;20200;-64
2020/12/24 04:52:58;;;;;;;40.20;22.60;;;;;;;3.89;72.13;95473.06;5048291;28;20216;-62
2020/12/24 04:55:24;;;;;;;41.60;20.88;;;;;;;3.97;71.28;95467.69;5047621;28;20702;-64
2020/12/24 04:57:51;;;;;;;37.47;20.95;;;;;;;4.11;70.60;95466.66;5047891;28;20192;-64
2020/12/24 05:00:18;;;;;;;35.70;21.05;;;;;;;4.01;71.01;95442.97;5047543;28;20193;-64
2020/12/24 05:03:02;;;;;;;37.03;21.80;;;;;;;4.17;71.01;95460.69;5048198;28;20189;-65
2020/12/24 05:05:30;;;;;;;42.50;21.23;;;;;;;4.24;70.33;95461.47;5046513;28;20271;-64
2020/12/24 05:07:58;;;;;;;43.55;21.67;;;;;;;4.04;70.60;95458.91;5048385;28;20997;-63
2020/12/24 05:10:25;;;;;;;42.65;21.15;;;;;;;4.15;70.58;95454.91;5048081;28;20646;-64
2020/12/24 05:12:51;;;;;;;41.25;21.77;;;;;;;4.12;70.60;95465.69;5048036;28;20912;-64
2020/12/24 05:15:29;;;;;;;39.58;21.65;;;;;;;4.12;70.03;95465.69;5047364;28;20232;-63
2020/12/24 05:18:17;;;;;;;37.35;21.90;;;;;;;4.01;70.10;95458.53;5047743;28;20549;-64
2020/12/24 05:20:44;;;;;;;37.22;21.98;;;;;;;3.97;70.48;95452.13;5045395;28;20628;-63
2020/12/24 05:23:15;;;;;;;55.83;30.10;;;;;;;4.03;70.36;95459.13;5047891;28;20185;-64
2020/12/24 05:25:43;;;;;;;93.03;47.70;;;;;;;3.78;70.51;95442.56;5044790;28;20584;-64
2020/12/24 05:28:20;;;;;;;103.63;51.42;;;;;;;4.06;70.40;95458.72;5047549;28;20688;-63
2020/12/24 05:30:47;;;;;;;110.68;56.10;;;;;;;4.04;70.33;95458.09;5045695;28;20196;-63
2020/12/24 05:33:34;;;;;;;111.80;56.65;;;;;;;4.02;70.24;95460.91;5051554;28;20647;-64
2020/12/24 05:36:21;;;;;;;126.57;61.08;;;;;;;3.94;70.08;95458.50;5051856;28;20188;-62
2020/12/24 05:38:50;;;;;;;131.18;64.78;;;;;;;3.92;70.04;95451.94;5049479;28;20241;-64
2020/12/24 05:41:30;;;;;;;117.78;59.45;;;;;;;3.97;70.03;95447.75;5052060;28;20193;-65
2020/12/24 05:44:01;;;;;;;108.57;55.30;;;;;;;3.86;69.70;95450.94;5052329;28;20210;-63
2020/12/24 05:46:38;;;;;;;125.35;59.60;;;;;;;3.94;69.96;95453.31;5054199;28;20196;-63
2020/12/24 05:49:12;;;;;;;120.75;58.10;;;;;;;3.93;69.87;95451.75;5049347;28;20662;-63
2020/12/24 05:52:02;;;;;;;105.00;55.63;;;;;;;3.82;70.36;95448.94;5050596;28;20193;-62
2020/12/24 05:54:30;;;;;;;109.80;52.58;;;;;;;3.79;70.59;95444.16;5050445;28;20725;-63
2020/12/24 05:56:58;;;;;;;106.88;52.70;;;;;;;3.74;70.62;95451.75;5051398;28;20578;-65
2020/12/24 05:59:27;;;;;;;110.88;56.88;;;;;;;3.65;71.02;95452.94;5049088;28;20622;-63
2020/12/24 06:02:05;;;;;;;109.95;57.25;;;;;;;3.32;72.80;95431.41;5051615;28;20242;-63
2020/12/24 06:04:48;;;;;;;108.47;54.67;;;;;;;2.91;74.03;95418.56;5049662;28;20590;-69
2020/12/24 06:07:21;;;;;;;79.93;40.63;;;;;;;3.07;74.96;95444.06;5050100;28;20748;-65
2020/12/24 06:09:49;;;;;;;66.97;33.85;;;;;;;3.46;73.68;95438.97;5040820;28;20281;-64
2020/12/24 06:12:23;;;;;;;71.80;38.00;;;;;;;3.36;73.65;95441.16;5049178;28;20196;-64
2020/12/24 06:14:57;;;;;;;72.57;38.58;;;;;;;3.54;73.17;95445.78;5047528;28;20731;-64
2020/12/24 06:17:25;;;;;;;73.95;39.35;;;;;;;3.69;72.68;95443.75;5047924;28;20200;-63
2020/12/24 06:19:52;;;;;;;70.72;36.42;;;;;;;3.71;72.60;95428.81;5049484;28;20220;-64
2020/12/24 06:22:20;;;;;;;66.13;36.42;;;;;;;3.89;72.48;95444.56;5051669;28;20192;-64
2020/12/24 06:24:55;;;;;;;60.63;29.95;;;;;;;4.01;72.59;95442.97;5052287;28;20909;-63
2020/12/24 06:27:29;;;;;;;47.05;25.90;;;;;;;4.14;72.61;95438.53;5049711;28;20198;-63
2020/12/24 06:30:02;;;;;;;52.30;26.52;;;;;;;4.25;72.59;95444.94;5049673;28;20185;-64
2020/12/24 06:32:31;;;;;;;52.38;28.88;;;;;;;4.02;73.43;95450.53;5047970;28;20211;-65
2020/12/24 06:34:57;;;;;;;57.05;31.73;;;;;;;4.12;73.39;95452.72;5049614;28;20320;-64
2020/12/24 06:37:24;;;;;;;59.58;33.42;;;;;;;4.22;72.81;95444.50;5049741;28;20177;-63
2020/12/24 06:39:52;;;;;;;57.40;31.70;;;;;;;4.29;72.30;95446.09;5048685;28;20295;-64
2020/12/24 06:42:41;;;;;;;57.50;30.55;;;;;;;4.52;72.59;95449.03;5046780;28;20204;-65
2020/12/24 06:45:21;;;;;;;55.78;30.58;;;;;;;4.55;71.78;95440.03;5048036;28;20600;-66
2020/12/24 06:48:14;;;;;;;60.35;31.58;;;;;;;4.46;71.06;95452.44;5048196;28;20279;-66
2020/12/24 06:50:56;;;;;;;48.40;28.80;;;;;;;4.66;71.22;95448.00;5046372;28;20199;-65
2020/12/24 06:53:25;;;;;;;47.17;26.55;;;;;;;4.66;71.22;95452.38;5046728;28;20204;-65
2020/12/24 06:56:14;;;;;;;99.53;56.25;;;;;;;4.93;70.88;95454.66;5049320;28;20272;-65
2020/12/24 06:58:40;;;;;;;70.18;38.63;;;;;;;5.04;70.04;95456.63;5049291;28;20192;-65
2020/12/24 07:01:13;;;;;;;110.70;58.40;;;;;;;4.95;69.53;95446.66;5049475;28;20566;-67
2020/12/24 07:03:40;;;;;;;141.23;77.78;;;;;;;5.08;69.36;95451.81;5046180;28;20243;-65
2020/12/24 07:06:07;;;;;;;327.88;195.20;;;;;;;5.09;69.49;95446.41;5049268;28;20241;-65
2020/12/24 07:08:34;;;;;;;232.88;130.45;;;;;;;5.16;72.10;95460.13;5048695;28;20189;-65
2020/12/24 07:11:02;;;;;;;238.57;136.70;;;;;;;5.58;72.27;95455.31;5046123;28;20197;-65
2020/12/24 07:13:31;;;;;;;258.77;145.65;;;;;;;5.81;70.95;95463.31;5048625;28;20221;-65
2020/12/24 07:15:57;;;;;;;230.57;127.25;;;;;;;5.65;69.18;95448.25;5049090;28;20584;-63
2020/12/24 07:18:24;;;;;;;236.90;136.35;;;;;;;5.64;68.82;95441.47;5049783;28;20208;-63
2020/12/24 07:20:52;;;;;;;235.70;133.00;;;;;;;5.60;70.10;95445.50;5048504;28;20196;-64
2020/12/24 07:23:31;;;;;;;231.60;132.20;;;;;;;5.62;69.00;95435.69;5048194;28;20191;-65
2020/12/24 07:26:02;;;;;;;239.45;136.48;;;;;;;5.56;69.24;95439.13;5048828;28;20200;-63
2020/12/24 07:28:34;;;;;;;269.38;158.30;;;;;;;5.46;68.14;95439.59;5049002;28;20192;-64
2020/12/24 07:31:03;;;;;;;272.45;150.70;;;;;;;5.30;69.28;95454.88;5046162;28;20547;-64
2020/12/24 07:33:30;;;;;;;264.73;152.95;;;;;;;5.48;68.95;95447.16;5048410;28;20228;-65
2020/12/24 07:35:57;;;;;;;280.75;152.35;;;;;;;5.48;68.81;95441.97;5047739;28;20694;-64
2020/12/24 07:38:25;;;;;;;246.80;142.85;;;;;;;5.44;69.69;95439.00;5048210;28;20199;-65
2020/12/24 07:40:52;;;;;;;249.25;147.38;;;;;;;5.32;71.39;95434.69;5048226;28;20275;-65
2020/12/24 07:43:19;;;;;;;263.50;156.43;;;;;;;5.60;70.24;95438.47;5048771;28;20193;-65
2020/12/24 07:45:45;;;;;;;250.68;146.43;;;;;;;5.69;69.42;95436.44;5048412;28;20296;-63
2020/12/24 07:48:15;;;;;;;250.73;146.90;;;;;;;5.72;69.13;95430.78;5048986;28;20984;-64
2020/12/24 07:50:43;;;;;;;216.80;130.27;;;;;;;5.94;68.33;95426.84;5048167;28;20196;-64
2020/12/24 07:53:24;;;;;;;228.15;134.48;;;;;;;6.04;68.42;95424.53;5047496;28;20212;-65
2020/12/24 07:55:50;;;;;;;229.93;136.50;;;;;;;6.15;68.32;95421.25;5052599;28;20242;-63
2020/12/24 07:58:18;;;;;;;223.52;133.13;;;;;;;6.19;68.49;95435.41;5049149;28;20678;-66
2020/12/24 08:00:55;;;;;;;213.65;129.57;;;;;;;6.50;67.65;95431.91;5045661;28;20216;-65
2020/12/24 08:03:22;;;;;;;222.18;134.93;;;;;;;6.58;67.71;95429.81;5048082;28;20184;-64
2020/12/24 08:05:49;;;;;;;212.18;127.07;;;;;;;6.81;67.28;95429.94;5047540;28;20283;-64
2020/12/24 08:08:22;;;;;;;197.32;123.88;;;;;;;7.05;66.68;95430.84;5047845;28;20199;-65
2020/12/24 08:10:48;;;;;;;214.90;134.48;;;;;;;7.16;66.59;95428.31;5046376;28;20197;-63
2020/12/24 08:13:15;;;;;;;289.60;189.90;;;;;;;7.49;66.29;95427.03;5048541;28;20212;-64
2020/12/24 08:15:45;;;;;;;352.58;232.25;;;;;;;7.58;66.22;95420.47;5047710;28;20246;-64
2020/12/24 08:18:14;;;;;;;184.63;114.22;;;;;;;7.74;64.63;95430.25;5048241;28;20475;-65
2020/12/24 08:21:03;;;;;;;166.95;102.95;;;;;;;7.62;65.20;95429.44;5047700;28;20946;-66
2020/12/24 08:23:41;;;;;;;193.43;120.50;;;;;;;7.67;64.80;95435.59;5046263;28;20233;-64
2020/12/24 08:26:11;;;;;;;196.77;122.67;;;;;;;7.83;64.38;95434.94;5041974;28;20475;-64
2020/12/24 08:28:39;;;;;;;238.27;141.80;;;;;;;7.84;67.05;95420.06;5047054;28;20525;-66
2020/12/24 08:31:09;;;;;;;216.10;132.85;;;;;;;7.79;68.02;95433.00;5045476;28;21035;-65
2020/12/24 08:33:36;;;;;;;196.33;118.60;;;;;;;7.84;66.63;95431.31;5046173;28;20255;-66
2020/12/24 08:36:13;;;;;;;181.37;108.87;;;;;;;8.05;65.55;95422.13;5047072;28;20981;-67
2020/12/24 08:38:39;;;;;;;181.57;103.77;;;;;;;8.11;65.38;95426.44;5047464;28;20493;-66
2020/12/24 08:41:06;;;;;;;152.27;92.23;;;;;;;8.34;64.73;95431.69;5048503;28;20461;-64
2020/12/24 08:43:33;;;;;;;138.40;85.77;;;;;;;8.48;64.30;95422.59;5047248;28;20427;-66
2020/12/24 08:46:00;;;;;;;132.53;80.87;;;;;;;8.40;63.96;95430.78;5047690;28;20446;-66
2020/12/24 08:48:29;;;;;;;127.23;75.77;;;;;;;8.68;62.98;95425.66;5046292;28;20525;-65
2020/12/24 08:50:56;;;;;;;115.00;70.37;;;;;;;9.09;63.65;95419.38;5047448;28;20434;-67
2020/12/24 08:53:24;;;;;;;105.63;65.47;;;;;;;9.40;61.26;95405.06;5046847;28;20573;-69
2020/12/24 08:55:51;;;;;;;93.53;57.10;;;;;;;9.43;60.70;95409.81;5046843;28;20431;-66
2020/12/24 08:58:18;;;;;;;85.87;52.43;;;;;;;9.89;60.31;95404.31;5047425;28;20983;-66
2020/12/24 09:00:44;;;;;;;83.73;52.80;;;;;;;9.82;60.36;95403.66;5046672;28;20447;-65
2020/12/24 09:03:26;;;;;;;84.23;52.23;;;;;;;10.02;59.57;95385.63;5047431;28;20430;-69
2020/12/24 09:05:53;;;;;;;96.73;57.27;;;;;;;10.35;58.27;95377.75;5045248;28;20893;-65
2020/12/24 09:08:27;;;;;;;95.10;59.23;;;;;;;10.32;58.86;95378.25;5047129;28;20462;-64
2020/12/24 09:10:54;;;;;;;91.73;56.33;;;;;;;10.26;58.16;95379.22;5045011;28;20443;-66
2020/12/24 09:13:20;;;;;;;85.23;55.03;;;;;;;10.42;58.48;95367.91;5046468;28;21042;-66
2020/12/24 09:15:47;;;;;;;88.47;55.17;;;;;;;10.69;57.38;95368.75;5046732;28;20819;-65
2020/12/24 09:18:16;;;;;;;88.83;53.17;;;;;;;10.84;57.07;95355.84;5047324;28;20473;-66
2020/12/24 09:20:43;;;;;;;81.87;50.47;;;;;;;10.97;56.76;95352.03;5046614;28;20542;-64
2020/12/24 09:23:12;;;;;;;79.93;48.30;;;;;;;11.19;56.34;95343.09;5046902;28;20880;-67
2020/12/24 09:25:43;;;;;;;75.60;49.77;;;;;;;11.09;56.53;95344.84;5046875;28;20435;-65
2020/12/24 09:28:25;;;;;;;196.93;125.23;;;;;;;11.29;56.74;95339.00;5045139;28;20992;-62
2020/12/24 09:31:00;;;;;;;135.37;94.97;;;;;;;11.55;56.28;95333.69;5048011;28;20443;-68
2020/12/24 09:33:28;;;;;;;73.93;44.40;;;;;;;11.27;56.08;95343.69;5043954;28;21034;-65
2020/12/24 09:35:54;;;;;;;69.23;41.77;;;;;;;11.77;55.55;95331.03;5046318;28;20503;-64
2020/12/24 09:38:21;;;;;;;63.13;40.20;;;;;;;11.67;55.25;95329.13;5047122;28;21199;-64
2020/12/24 09:40:48;;;;;;;63.33;39.60;;;;;;;11.88;55.06;95324.78;5041316;28;20611;-65
2020/12/24 09:43:14;;;;;;;63.37;41.63;;;;;;;12.06;55.06;95332.28;5047180;28;20443;-65
2020/12/24 09:45:41;;;;;;;71.10;44.93;;;;;;;12.03;55.01;95327.50;5046011;28;20449;-64
2020/12/24 09:48:08;;;;;;;73.37;44.37;;;;;;;12.12;54.98;95312.88;5044597;28;20475;-66
2020/12/24 09:50:40;;;;;;;69.27;43.17;;;;;;;11.95;54.88;95307.78;5046589;28;20423;-66
2020/12/24 09:53:07;;;;;;;60.07;42.43;;;;;;;12.12;54.78;95303.16;5044225;28;20496;-64
2020/12/24 09:55:33;;;;;;;65.50;41.23;;;;;;;12.04;54.68;95297.59;5046723;28;20446;-68
2020/12/24 09:58:00;;;;;;;69.03;40.90;;;;;;;12.13;54.83;95303.94;5046289;28;20450;-69
2020/12/24 10:00:26;;;;;;;62.73;41.07;;;;;;;12.17;54.76;95291.91;5046204;28;20546;-63
2020/12/24 10:02:53;;;;;;;63.80;40.73;;;;;;;12.19;54.53;95285.31;5045732;28;20473;-64
2020/12/24 10:05:20;;;;;;;62.30;41.57;;;;;;;11.90;54.79;95278.06;5045954;28;20500;-64
2020/12/24 10:07:50;;;;;;;65.00;39.90;;;;;;;12.14;54.64;95287.13;5043887;28;20427;-67
2020/12/24 10:10:17;;;;;;;55.30;39.00;;;;;;;12.38;53.93;95283.03;5045654;28;20454;-68
2020/12/24 10:12:43;;;;;;;61.63;40.13;;;;;;;12.08;54.62;95269.75;5044762;28;20822;-64
2020/12/24 10:15:09;;;;;;;59.10;36.27;;;;;;;12.29;54.34;95279.34;5044752;28;20540;-67
2020/12/24 10:17:36;;;;;;;59.10;37.40;;;;;;;12.28;53.89;95269.84;5046916;28;20604;-63
2020/12/24 10:20:02;;;;;;;55.83;33.87;;;;;;;12.33;53.74;95258.59;5049043;28;20434;-67
2020/12/24 10:22:29;;;;;;;50.83;34.27;;;;;;;12.12;53.95;95257.69;5048897;28;20435;-68
2020/12/24 10:24:55;;;;;;;50.73;33.33;;;;;;;12.17;54.65;95255.13;5064486;28;20953;-64
2020/12/24 10:27:21;;;;;;;52.80;33.20;;;;;;;12.05;55.08;95252.69;5049545;28;21270;-66
2020/12/24 10:29:48;;;;;;;48.83;31.73;;;;;;;12.06;55.05;95248.22;5048988;28;20526;-67
2020/12/24 10:32:14;;;;;;;50.10;33.43;;;;;;;11.77;55.37;95249.66;5049049;28;20447;-64
2020/12/24 10:34:41;;;;;;;53.40;34.20;;;;;;;11.66;55.57;95255.88;5048165;28;20573;-67
2020/12/24 10:37:07;;;;;;;73.47;51.37;;;;;;;11.81;56.21;95235.75;5047720;28;20974;-66
2020/12/24 10:39:34;;;;;;;59.63;36.50;;;;;;;11.48;55.79;95235.25;5048596;28;20441;-66
2020/12/24 10:42:00;;;;;;;58.83;36.27;;;;;;;11.21;56.70;95225.63;5048572;28;20447;-68
2020/12/24 10:44:28;;;;;;;53.23;34.33;;;;;;;11.29;56.54;95226.97;5048218;28;20994;-66
2020/12/24 10:46:58;;;;;;;55.73;35.77;;;;;;;11.23;56.91;95218.28;5048181;28;21197;-67
2020/12/24 10:49:25;;;;;;;59.20;36.37;;;;;;;11.14;57.67;95222.41;5047766;28;20524;-65
2020/12/24 10:51:52;;;;;;;67.20;40.30;;;;;;;11.13;57.01;95218.19;5048407;28;20439;-66
2020/12/24 10:54:19;;;;;;;61.67;41.60;;;;;;;11.06;57.09;95222.84;5048327;28;20478;-66
2020/12/24 10:56:46;;;;;;;58.90;37.00;;;;;;;11.08;57.60;95215.53;5046411;28;20518;-65
2020/12/24 10:59:14;;;;;;;72.10;41.83;;;;;;;11.08;58.00;95215.53;5048288;28;20439;-66
2020/12/24 11:01:48;;;;;;;70.90;45.20;;;;;;;11.18;58.08;95205.13;5049382;28;20433;-68
2020/12/24 11:04:15;;;;;;;65.00;41.97;;;;;;;11.37;57.37;95207.38;5053882;28;20447;-67
2020/12/24 11:06:45;;;;;;;61.90;40.53;;;;;;;11.46;58.14;95200.59;5049025;28;20957;-65
2020/12/24 11:09:14;;;;;;;57.77;36.07;;;;;;;11.78;56.16;95202.13;5049523;28;20431;-69
2020/12/24 11:11:41;;;;;;;53.03;35.23;;;;;;;11.67;56.34;95197.06;5049599;28;20435;-67
2020/12/24 11:14:08;;;;;;;59.07;36.40;;;;;;;11.59;55.79;95194.88;5048779;28;20475;-65
2020/12/24 11:16:34;;;;;;;54.87;34.13;;;;;;;11.66;56.81;95187.63;5049743;28;20435;-64
2020/12/24 11:19:01;;;;;;;54.20;35.30;;;;;;;11.63;56.39;95196.75;5048645;28;20450;-63
2020/12/24 11:21:33;;;;;;;60.47;36.70;;;;;;;11.53;56.61;95185.44;5049299;28;20996;-64
2020/12/24 11:24:06;;;;;;;60.80;36.17;;;;;;;11.25;57.72;95157.69;5049148;28;20453;-63
2020/12/24 11:26:34;;;;;;;58.37;38.13;;;;;;;11.21;57.46;95172.34;5047575;28;20439;-66